Suehiro Maru No.8 — JK5423 — position and weather

sailwx.info

Track history (hours):
 
Tides and Currents Weather Stations Pressure Air Temp Water Temp Dewpoint Dewpoint Depression Visibility Wind Speed Wind Dir Waves Ship Positions

Suehiro Maru No.8

Last reported at 2014-Oct-20 09:30 UTC. Time now 2014-Oct-23 08:53 UTC.
Position N 35°12' E 139°46'.

Length 88 m; draft 3.8 m.

Type: Cargo ship. MMSI: 431400446.

Date/timePositionNaut miles runAvg speedWind from/ knotsBaromVisibWave heightAir tempDewpointWater temp
2014-Oct-20 09:30N 35°12' E 139°46'1112.2
2014-Oct-20 08:34N 35°23' E 139°43'1211.4
2014-Oct-20 07:32N 35°33' E 139°51'5 4.6
2014-Oct-20 06:30N 35°37' E 139°49'0 0.0
2014-Oct-20 05:33N 35°37' E 139°49'0 0.0
2014-Oct-20 04:31N 35°37' E 139°49'0 0.0
2014-Oct-20 03:19N 35°37' E 139°49'0 0.0
2014-Oct-20 01:12N 35°37' E 139°49'4 6.7
2014-Oct-20 00:34N 35°34' E 139°51'1211.8
2014-Oct-19 23:34N 35°22' E 139°53'0 0.0
2014-Oct-19 22:34N 35°22' E 139°53'0 0.0
2014-Oct-19 21:33N 35°22' E 139°53'0 0.0
2014-Oct-19 20:33N 35°22' E 139°53'0 0.0
2014-Oct-19 19:33N 35°22' E 139°53'0 0.0
2014-Oct-19 18:34N 35°22' E 139°53'0 0.0
2014-Oct-19 17:33N 35°22' E 139°53'0 0.0
2014-Oct-19 16:33N 35°22' E 139°53'0 0.0
2014-Oct-19 15:33N 35°22' E 139°53'0 0.0
2014-Oct-19 14:34N 35°22' E 139°53'0 0.0
2014-Oct-19 13:33N 35°22' E 139°53'0 0.0
2014-Oct-19 12:33N 35°22' E 139°53'0 0.0
2014-Oct-19 11:34N 35°22' E 139°53'2 1.6
2014-Oct-19 10:33N 35°23' E 139°51'0 0.5
2014-Oct-19 09:33N 35°23' E 139°51'0 0.0
2014-Oct-19 08:33N 35°23' E 139°51'0 0.0
2014-Oct-19 07:34N 35°23' E 139°51'0 0.0
2014-Oct-19 06:33N 35°23' E 139°51'0 0.1
2014-Oct-19 05:33N 35°23' E 139°51'6 6.4
2014-Oct-19 04:33N 35°30' E 139°52'7 6.1
2014-Oct-19 03:27N 35°28' E 140°00'0 0.0
2014-Oct-19 02:34N 35°28' E 140°00'0 0.0
2014-Oct-19 01:33N 35°28' E 140°00'0 0.0
2014-Oct-18 23:31N 35°28' E 140°00'2 2.4
2014-Oct-18 22:33N 35°30' E 139°58'0 0.0
2014-Oct-18 21:34N 35°30' E 139°58'0 0.0
2014-Oct-18 20:34N 35°30' E 139°58'0 0.0
2014-Oct-18 19:33N 35°30' E 139°58'0 0.0
2014-Oct-18 18:34N 35°30' E 139°58'0 0.0
2014-Oct-18 17:34N 35°30' E 139°58'0 0.0
2014-Oct-18 16:34N 35°30' E 139°58'0 0.0
2014-Oct-18 15:33N 35°30' E 139°58'2 1.8
2014-Oct-18 14:33N 35°29' E 139°56'1212.3
2014-Oct-18 13:33N 35°21' E 139°45'1211.5
2014-Oct-18 12:32N 35°09' E 139°46'  
2014-Oct-15 03:28N 33°54' E 130°39'0 0.3
2014-Oct-15 02:17N 33°54' E 130°39'0 0.0
2014-Oct-15 01:23N 33°54' E 130°39'0 0.0
2014-Oct-15 00:29N 33°54' E 130°39'0 0.0
2014-Oct-14 23:29N 33°54' E 130°39'0 0.0
2014-Oct-14 22:29N 33°54' E 130°39'5 5.1
2014-Oct-14 21:27N 33°58' E 130°44'95 4.9
2014-Oct-14 02:15N 34°08' E 132°38'1011.6
2014-Oct-14 01:24N 34°02' E 132°29'1011.8
2014-Oct-14 00:33N 34°10' E 132°22'5 5.5
2014-Oct-13 23:33N 34°14' E 132°26'0 0.1
2014-Oct-13 22:33N 34°14' E 132°26'0 0.0
2014-Oct-13 21:33N 34°14' E 132°26'0 0.0
2014-Oct-13 20:33N 34°14' E 132°26'0 0.0
2014-Oct-13 19:33N 34°14' E 132°26'0 0.0
2014-Oct-13 18:33N 34°14' E 132°26'0 0.0
2014-Oct-13 17:33N 34°14' E 132°26'0 0.0
2014-Oct-13 16:33N 34°14' E 132°26'0 0.0
2014-Oct-13 15:33N 34°14' E 132°26'0 0.0
2014-Oct-13 14:33N 34°14' E 132°26'0 0.0
2014-Oct-13 13:33N 34°14' E 132°26'0 0.0
2014-Oct-13 12:33N 34°14' E 132°26'0 0.0
2014-Oct-13 11:33N 34°14' E 132°26'0 0.0
2014-Oct-13 10:32N 34°14' E 132°26'0 0.0
2014-Oct-13 09:33N 34°14' E 132°26'0 0.0
2014-Oct-13 08:33N 34°14' E 132°26'0 0.0
2014-Oct-13 07:33N 34°14' E 132°26'0 0.0
2014-Oct-13 06:33N 34°14' E 132°26'0 0.0
2014-Oct-13 05:33N 34°14' E 132°26'0 0.0
2014-Oct-13 04:33N 34°14' E 132°26'0 0.0
2014-Oct-13 03:33N 34°14' E 132°26'0 0.0
2014-Oct-13 02:33N 34°14' E 132°26'0 0.0
2014-Oct-13 01:33N 34°14' E 132°26'0 0.0
2014-Oct-13 00:33N 34°14' E 132°26'0 0.0
2014-Oct-12 23:33N 34°14' E 132°26'0 0.0
2014-Oct-12 22:33N 34°14' E 132°26'0 0.0
2014-Oct-12 21:33N 34°14' E 132°26'0 0.0
2014-Oct-12 08:09N 34°14' E 132°26'0 0.0
2014-Oct-12 07:33N 34°14' E 132°26'0 0.0
2014-Oct-12 06:33N 34°14' E 132°26'0 0.0
2014-Oct-12 05:33N 34°14' E 132°26'0 0.0
2014-Oct-12 04:33N 34°14' E 132°26'0 0.0
2014-Oct-12 03:33N 34°14' E 132°26'0 0.0
2014-Oct-12 02:33N 34°14' E 132°26'0 0.0
2014-Oct-12 01:33N 34°14' E 132°26'0 0.0
2014-Oct-12 00:33N 34°14' E 132°26'0 0.0
2014-Oct-11 23:33N 34°14' E 132°26'0 0.4
2014-Oct-11 22:28N 34°14' E 132°26'0 0.0
2014-Oct-11 21:28N 34°14' E 132°26'2 2.2
2014-Oct-11 20:33N 34°16' E 132°25'8 7.5
2014-Oct-11 19:33N 34°09' E 132°22'14 9.6
2014-Oct-11 18:09N 34°04' E 132°37'10711.1
2014-Oct-11 08:26N 34°07' E 134°46'  
Track history (hours):
 
Tides and Currents Weather Stations Pressure Air Temp Water Temp Dewpoint Dewpoint Depression Visibility Wind Speed Wind Dir Waves Ship Positions

Suehiro Maru No.8

Last reported at 2014-Oct-20 09:30 UTC. Time now 2014-Oct-23 08:53 UTC.
Position N 35°12' E 139°46'.

Length 88 m; draft 3.8 m.

Type: Cargo ship. MMSI: 431400446.

Date/timePositionNaut miles runAvg speedWind from/ knotsBaromVisibWave heightAir tempDewpointWater temp
2014-Oct-20 09:30N 35°12' E 139°46'1112.2
2014-Oct-20 08:34N 35°23' E 139°43'1211.4
2014-Oct-20 07:32N 35°33' E 139°51'5 4.6
2014-Oct-20 06:30N 35°37' E 139°49'0 0.0
2014-Oct-20 05:33N 35°37' E 139°49'0 0.0
2014-Oct-20 04:31N 35°37' E 139°49'0 0.0
2014-Oct-20 03:19N 35°37' E 139°49'0 0.0
2014-Oct-20 01:12N 35°37' E 139°49'4 6.7
2014-Oct-20 00:34N 35°34' E 139°51'1211.8
2014-Oct-19 23:34N 35°22' E 139°53'0 0.0
2014-Oct-19 22:34N 35°22' E 139°53'0 0.0
2014-Oct-19 21:33N 35°22' E 139°53'0 0.0
2014-Oct-19 20:33N 35°22' E 139°53'0 0.0
2014-Oct-19 19:33N 35°22' E 139°53'0 0.0
2014-Oct-19 18:34N 35°22' E 139°53'0 0.0
2014-Oct-19 17:33N 35°22' E 139°53'0 0.0
2014-Oct-19 16:33N 35°22' E 139°53'0 0.0
2014-Oct-19 15:33N 35°22' E 139°53'0 0.0
2014-Oct-19 14:34N 35°22' E 139°53'0 0.0
2014-Oct-19 13:33N 35°22' E 139°53'0 0.0
2014-Oct-19 12:33N 35°22' E 139°53'0 0.0
2014-Oct-19 11:34N 35°22' E 139°53'2 1.6
2014-Oct-19 10:33N 35°23' E 139°51'0 0.5
2014-Oct-19 09:33N 35°23' E 139°51'0 0.0
2014-Oct-19 08:33N 35°23' E 139°51'0 0.0
2014-Oct-19 07:34N 35°23' E 139°51'0 0.0
2014-Oct-19 06:33N 35°23' E 139°51'0 0.1
2014-Oct-19 05:33N 35°23' E 139°51'6 6.4
2014-Oct-19 04:33N 35°30' E 139°52'7 6.1
2014-Oct-19 03:27N 35°28' E 140°00'0 0.0
2014-Oct-19 02:34N 35°28' E 140°00'0 0.0
2014-Oct-19 01:33N 35°28' E 140°00'0 0.0
2014-Oct-18 23:31N 35°28' E 140°00'2 2.4
2014-Oct-18 22:33N 35°30' E 139°58'0 0.0
2014-Oct-18 21:34N 35°30' E 139°58'0 0.0
2014-Oct-18 20:34N 35°30' E 139°58'0 0.0
2014-Oct-18 19:33N 35°30' E 139°58'0 0.0
2014-Oct-18 18:34N 35°30' E 139°58'0 0.0
2014-Oct-18 17:34N 35°30' E 139°58'0 0.0
2014-Oct-18 16:34N 35°30' E 139°58'0 0.0
2014-Oct-18 15:33N 35°30' E 139°58'2 1.8
2014-Oct-18 14:33N 35°29' E 139°56'1212.3
2014-Oct-18 13:33N 35°21' E 139°45'1211.5
2014-Oct-18 12:32N 35°09' E 139°46'  
2014-Oct-15 03:28N 33°54' E 130°39'0 0.3
2014-Oct-15 02:17N 33°54' E 130°39'0 0.0
2014-Oct-15 01:23N 33°54' E 130°39'0 0.0
2014-Oct-15 00:29N 33°54' E 130°39'0 0.0
2014-Oct-14 23:29N 33°54' E 130°39'0 0.0
2014-Oct-14 22:29N 33°54' E 130°39'5 5.1
2014-Oct-14 21:27N 33°58' E 130°44'95 4.9
2014-Oct-14 02:15N 34°08' E 132°38'1011.6
2014-Oct-14 01:24N 34°02' E 132°29'1011.8
2014-Oct-14 00:33N 34°10' E 132°22'5 5.5
2014-Oct-13 23:33N 34°14' E 132°26'0 0.1
2014-Oct-13 22:33N 34°14' E 132°26'0 0.0
2014-Oct-13 21:33N 34°14' E 132°26'0 0.0
2014-Oct-13 20:33N 34°14' E 132°26'0 0.0
2014-Oct-13 19:33N 34°14' E 132°26'0 0.0
2014-Oct-13 18:33N 34°14' E 132°26'0 0.0
2014-Oct-13 17:33N 34°14' E 132°26'0 0.0
2014-Oct-13 16:33N 34°14' E 132°26'0 0.0
2014-Oct-13 15:33N 34°14' E 132°26'0 0.0
2014-Oct-13 14:33N 34°14' E 132°26'0 0.0
2014-Oct-13 13:33N 34°14' E 132°26'0 0.0
2014-Oct-13 12:33N 34°14' E 132°26'0 0.0
2014-Oct-13 11:33N 34°14' E 132°26'0 0.0
2014-Oct-13 10:32N 34°14' E 132°26'0 0.0
2014-Oct-13 09:33N 34°14' E 132°26'0 0.0
2014-Oct-13 08:33N 34°14' E 132°26'0 0.0
2014-Oct-13 07:33N 34°14' E 132°26'0 0.0
2014-Oct-13 06:33N 34°14' E 132°26'0 0.0
2014-Oct-13 05:33N 34°14' E 132°26'0 0.0
2014-Oct-13 04:33N 34°14' E 132°26'0 0.0
2014-Oct-13 03:33N 34°14' E 132°26'0 0.0
2014-Oct-13 02:33N 34°14' E 132°26'0 0.0
2014-Oct-13 01:33N 34°14' E 132°26'0 0.0
2014-Oct-13 00:33N 34°14' E 132°26'0 0.0
2014-Oct-12 23:33N 34°14' E 132°26'0 0.0
2014-Oct-12 22:33N 34°14' E 132°26'0 0.0
2014-Oct-12 21:33N 34°14' E 132°26'0 0.0
2014-Oct-12 08:09N 34°14' E 132°26'0 0.0
2014-Oct-12 07:33N 34°14' E 132°26'0 0.0
2014-Oct-12 06:33N 34°14' E 132°26'0 0.0
2014-Oct-12 05:33N 34°14' E 132°26'0 0.0
2014-Oct-12 04:33N 34°14' E 132°26'0 0.0
2014-Oct-12 03:33N 34°14' E 132°26'0 0.0
2014-Oct-12 02:33N 34°14' E 132°26'0 0.0
2014-Oct-12 01:33N 34°14' E 132°26'0 0.0
2014-Oct-12 00:33N 34°14' E 132°26'0 0.0
2014-Oct-11 23:33N 34°14' E 132°26'0 0.4
2014-Oct-11 22:28N 34°14' E 132°26'0 0.0
2014-Oct-11 21:28N 34°14' E 132°26'2 2.2
2014-Oct-11 20:33N 34°16' E 132°25'8 7.5
2014-Oct-11 19:33N 34°09' E 132°22'14 9.6
2014-Oct-11 18:09N 34°04' E 132°37'10711.1
2014-Oct-11 08:26N 34°07' E 134°46'  

Dump ship's entire track history